createdAt,value
2019-01-21T00:01:38.755Z,35.00
2019-01-21T00:06:57.102Z,37.17
2019-01-21T00:12:16.152Z,36.50
2019-01-21T00:17:34.700Z,33.63
2019-01-21T00:22:52.839Z,34.07
2019-01-21T00:28:11.417Z,32.10
2019-01-21T00:33:29.985Z,27.57
2019-01-21T00:38:48.464Z,32.27
2019-01-21T00:44:07.439Z,33.13
2019-01-21T00:49:26.081Z,31.87
2019-01-21T00:54:44.399Z,35.63
2019-01-21T01:00:04.804Z,33.47
2019-01-21T01:05:23.275Z,32.87
2019-01-21T01:10:41.941Z,34.97
2019-01-21T01:16:00.273Z,32.57
2019-01-21T01:21:18.795Z,36.80
2019-01-21T01:26:38.005Z,39.00
2019-01-21T01:31:56.564Z,34.13
2019-01-21T01:37:14.670Z,31.47
2019-01-21T01:42:32.894Z,35.60
2019-01-21T01:47:53.092Z,36.47
2019-01-21T01:53:11.903Z,32.10
2019-01-21T01:58:30.757Z,33.17
2019-01-21T02:03:48.927Z,36.90
2019-01-21T02:09:07.454Z,32.60
2019-01-21T02:14:25.936Z,32.77
2019-01-21T02:19:44.342Z,38.77
2019-01-21T02:25:02.720Z,35.93
2019-01-21T02:30:26.404Z,37.27
2019-01-21T02:35:57.805Z,38.77
2019-01-21T02:41:19.594Z,40.53
2019-01-21T02:46:43.929Z,79.10
2019-01-21T02:52:22.112Z,51.73
2019-01-21T02:58:03.370Z,38.60
2019-01-21T03:03:41.455Z,37.97
2019-01-21T03:09:22.803Z,43.60
2019-01-21T03:14:48.799Z,36.73
2019-01-21T03:20:22.856Z,41.77
2019-01-21T03:26:03.803Z,40.40
2019-01-21T03:31:27.721Z,38.73
2019-01-21T03:37:10.469Z,50.27
2019-01-21T03:42:45.828Z,38.63
2019-01-21T03:48:16.738Z,51.70
2019-01-21T03:53:43.946Z,40.03
2019-01-21T03:59:18.826Z,42.33
2019-01-21T04:04:59.643Z,34.13
2019-01-21T04:10:38.393Z,38.03
2019-01-21T04:16:06.404Z,38.90
2019-01-21T04:21:53.996Z,39.43
2019-01-21T04:27:22.561Z,39.57
2019-01-21T04:32:57.120Z,43.37
2019-01-21T04:38:34.864Z,42.97
2019-01-21T04:44:07.261Z,44.43
2019-01-21T04:49:44.145Z,42.50
2019-01-21T04:55:24.842Z,44.10
2019-01-21T05:01:18.287Z,40.27
2019-01-21T05:07:14.749Z,43.47
2019-01-21T05:12:44.270Z,74.17
2019-01-21T05:18:22.522Z,57.90
2019-01-21T05:23:59.336Z,43.63
2019-01-21T05:29:37.167Z,68.73
2019-01-21T05:35:08.633Z,58.33
2019-01-21T05:40:49.822Z,59.03
2019-01-21T05:46:35.546Z,52.37
2019-01-21T05:52:10.085Z,47.70
2019-01-21T05:57:48.886Z,59.97
2019-01-21T06:03:35.917Z,41.03
2019-01-21T06:09:12.968Z,59.90
2019-01-21T06:15:09.432Z,43.57
2019-01-21T06:21:03.523Z,40.43
2019-01-21T06:26:47.763Z,88.70
2019-01-21T06:32:28.355Z,37.60
2019-01-21T06:37:58.491Z,35.83
2019-01-21T06:43:36.765Z,46.33
2019-01-21T06:49:21.943Z,40.50
2019-01-21T06:54:47.974Z,46.07
2019-01-21T07:00:14.008Z,43.50
2019-01-21T07:05:40.552Z,39.70
2019-01-21T07:11:28.214Z,41.97
2019-01-21T07:17:08.205Z,70.30
2019-01-21T07:22:46.165Z,65.13
2019-01-21T07:28:11.011Z,139.40
2019-01-21T07:34:01.308Z,162.83
2019-01-21T07:39:45.280Z,49.53
2019-01-21T07:45:21.044Z,37.77
2019-01-21T07:51:00.856Z,44.77
2019-01-21T07:56:41.766Z,38.87
2019-01-21T08:02:10.545Z,37.97
2019-01-21T08:08:10.855Z,33.87
2019-01-21T08:13:40.618Z,33.57
2019-01-21T08:19:13.323Z,32.00
2019-01-21T08:25:00.682Z,43.07
2019-01-21T08:30:45.119Z,37.13
2019-01-21T08:36:23.584Z,37.30
2019-01-21T08:41:46.515Z,39.03
2019-01-21T08:47:16.188Z,36.67
2019-01-21T08:53:06.508Z,33.63
2019-01-21T08:58:38.408Z,36.43
2019-01-21T09:04:08.526Z,39.77
2019-01-21T09:09:30.755Z,36.00
2019-01-21T09:15:14.839Z,35.10
2019-01-21T09:20:52.852Z,35.77
2019-01-21T09:26:29.590Z,35.77
2019-01-21T09:31:52.099Z,43.20
2019-01-21T09:37:39.215Z,31.40
2019-01-21T09:43:23.495Z,35.17
2019-01-21T09:48:41.683Z,35.30
2019-01-21T09:53:59.779Z,41.23
2019-01-21T09:59:18.826Z,37.27
2019-01-21T10:04:48.335Z,62.07
2019-01-21T10:10:13.060Z,35.30
2019-01-21T10:15:51.207Z,44.67
2019-01-21T10:21:35.350Z,44.80
2019-01-21T10:27:05.183Z,37.67
2019-01-21T10:32:46.891Z,38.90
2019-01-21T10:38:13.578Z,43.67
2019-01-21T10:43:43.351Z,45.77
2019-01-21T10:49:33.663Z,45.63
2019-01-21T10:55:10.648Z,47.90
2019-01-21T11:00:47.166Z,40.20
2019-01-21T11:06:20.697Z,38.90
2019-01-21T11:12:13.815Z,37.20
2019-01-21T11:17:41.029Z,45.53
2019-01-21T11:23:02.914Z,43.93
2019-01-21T11:28:45.086Z,45.43
2019-01-21T11:34:29.489Z,40.83
2019-01-21T11:40:07.703Z,43.73
2019-01-21T11:45:38.771Z,52.00
2019-01-21T11:51:16.727Z,52.07
2019-01-21T11:56:42.987Z,48.30
2019-01-21T12:02:20.941Z,56.30
2019-01-21T12:08:05.696Z,54.43
2019-01-21T12:13:30.798Z,48.47
2019-01-21T12:18:55.531Z,58.40
2019-01-21T12:24:33.434Z,54.93
2019-01-21T12:29:58.495Z,59.50
2019-01-21T12:35:45.580Z,63.97
2019-01-21T12:41:35.662Z,57.03
2019-01-21T12:47:08.331Z,55.73
2019-01-21T12:52:32.746Z,57.93
2019-01-21T12:58:03.940Z,56.80
2019-01-21T13:03:34.199Z,62.77
2019-01-21T13:09:05.652Z,58.27
2019-01-21T13:14:49.649Z,61.37
2019-01-21T13:20:16.910Z,58.83
2019-01-21T13:25:54.945Z,59.53
2019-01-21T13:31:22.509Z,60.17
2019-01-21T13:36:48.562Z,59.47
2019-01-21T13:42:09.806Z,61.23
2019-01-21T13:47:46.367Z,62.23
2019-01-21T13:53:10.926Z,64.43
2019-01-21T13:58:42.284Z,64.67
2019-01-21T14:04:26.488Z,60.07
2019-01-21T14:10:06.114Z,59.50
2019-01-21T14:15:44.149Z,64.53
2019-01-21T14:21:25.201Z,76.03
2019-01-21T14:27:02.628Z,72.83
2019-01-21T14:32:30.737Z,63.57
2019-01-21T14:37:58.140Z,72.10
2019-01-21T14:43:35.738Z,62.80
2019-01-21T14:49:13.758Z,68.90
2019-01-21T14:54:56.658Z,55.40
2019-01-21T15:00:47.448Z,82.00
2019-01-21T15:06:23.396Z,160.13
2019-01-21T15:11:45.521Z,199.00
2019-01-21T15:17:12.637Z,86.33
2019-01-21T15:22:56.984Z,92.20
2019-01-21T15:28:33.974Z,64.73
2019-01-21T15:34:24.460Z,117.00
2019-01-21T15:40:08.802Z,87.87
2019-01-21T15:45:40.500Z,62.50
2019-01-21T15:51:17.506Z,65.47
2019-01-21T15:57:01.867Z,73.60
2019-01-21T16:02:34.382Z,69.23
2019-01-21T16:08:04.539Z,70.60
2019-01-21T16:13:32.178Z,77.53
2019-01-21T16:18:55.866Z,83.53
2019-01-21T16:24:40.119Z,72.90
2019-01-21T16:30:02.219Z,84.47
2019-01-21T16:35:34.436Z,71.87
2019-01-21T16:41:16.211Z,81.77
2019-01-21T16:46:34.768Z,69.57
2019-01-21T16:51:54.416Z,143.77
2019-01-21T16:57:13.040Z,126.73
2019-01-21T17:02:31.806Z,86.37
2019-01-21T17:07:50.455Z,82.23
2019-01-21T17:13:09.002Z,86.17
2019-01-21T17:18:28.329Z,94.77
2019-01-21T17:23:47.942Z,108.77
2019-01-21T17:29:06.813Z,113.37
2019-01-21T17:34:25.739Z,99.63
2019-01-21T17:39:43.967Z,104.00
2019-01-21T17:45:03.925Z,96.70
2019-01-21T17:50:22.507Z,88.93
2019-01-21T17:55:41.748Z,89.07
2019-01-21T18:01:00.736Z,86.63
2019-01-21T18:06:19.867Z,103.63
2019-01-21T18:11:41.394Z,96.33
2019-01-21T18:16:57.283Z,101.13
2019-01-21T18:22:15.862Z,80.13
2019-01-21T18:27:34.488Z,93.37
2019-01-21T18:32:53.643Z,114.83
2019-01-21T18:38:12.790Z,182.30
2019-01-21T18:43:31.544Z,298.23
2019-01-21T18:48:50.283Z,97.43
2019-01-21T18:54:08.782Z,100.87
2019-01-21T18:59:28.039Z,101.13
2019-01-21T19:04:46.975Z,91.90
2019-01-21T19:10:08.070Z,78.57
2019-01-21T19:15:27.933Z,92.50
2019-01-21T19:20:46.509Z,76.30
2019-01-21T19:26:04.941Z,80.37
2019-01-21T19:31:23.711Z,151.43
2019-01-21T19:36:43.347Z,94.03
2019-01-21T19:42:01.935Z,112.07
2019-01-21T19:47:20.936Z,90.20
2019-01-21T19:52:39.636Z,88.17
2019-01-21T19:57:58.738Z,72.67
2019-01-21T20:03:17.774Z,85.13
2019-01-21T20:08:36.488Z,82.90
2019-01-21T20:13:54.946Z,90.60
2019-01-21T20:19:14.454Z,77.70
2019-01-21T20:24:33.456Z,89.60
2019-01-21T20:29:52.782Z,77.97
2019-01-21T20:35:11.897Z,75.33
2019-01-21T20:40:30.883Z,85.23
2019-01-21T20:45:49.889Z,94.97
2019-01-21T20:51:08.845Z,87.77
2019-01-21T20:56:28.443Z,84.67
2019-01-21T21:01:47.076Z,173.63
2019-01-21T21:07:05.933Z,188.80
2019-01-21T21:12:25.900Z,99.27
2019-01-21T21:17:43.481Z,496.47
2019-01-21T21:23:01.692Z,780.77
2019-01-21T21:28:19.858Z,208.00
2019-01-21T21:33:39.405Z,333.57
2019-01-21T21:38:58.456Z,512.83
2019-01-21T21:44:16.891Z,396.03
2019-01-21T21:49:35.461Z,123.53
2019-01-21T21:54:53.672Z,95.97
2019-01-21T22:00:14.304Z,70.73
2019-01-21T22:05:32.663Z,86.43
2019-01-21T22:10:51.514Z,78.10
2019-01-21T22:16:10.058Z,84.03
2019-01-21T22:21:28.675Z,77.30
2019-01-21T22:26:47.701Z,107.20
2019-01-21T22:32:08.152Z,81.20
2019-01-21T22:37:27.498Z,75.70
2019-01-21T22:42:46.180Z,81.73
2019-01-21T22:48:04.838Z,80.50
2019-01-21T22:53:23.600Z,73.83
2019-01-21T22:58:44.341Z,81.17
2019-01-21T23:04:02.931Z,76.73
2019-01-21T23:09:21.478Z,71.87
2019-01-21T23:14:41.900Z,86.73
2019-01-21T23:20:02.095Z,63.53
2019-01-21T23:25:20.350Z,74.30
2019-01-21T23:30:38.498Z,82.20
2019-01-21T23:35:57.325Z,71.80
2019-01-21T23:41:16.065Z,71.33
2019-01-21T23:46:34.879Z,65.77
2019-01-21T23:51:54.200Z,65.40
2019-01-21T23:57:13.284Z,56.63
